Current | Forecast
Updated: 6:30 AM JST on October 17, 2017
Observed at Fukuoka Airport, Japan
Temperature 63°F
Humidity 88%
Dew Point 59°F
Wind North at 5 mph
Pressure 30.12 in (Steady)
Conditions Light Rain Showers
Visibility 6.2 miles
UV 0 out of 16
Clouds (FEW) : 1000 ft
Mostly Cloudy (BKN) : 1500 ft
Mostly Cloudy (BKN) : 2500 ft
Yesterday's Maximum 64°F
Yesterday's Minimum 63°F approx.
Yesterday's Heating Degree Days 2 approx.
Sunrise6:24 AM JST
Sunset5:43 PM JST
Moon Rise3:35 AM JST
Moon Set4:30 PM JST
Moon PhaseMoon Phase
Waning Crescent
Raw METARMETAR RJFF 162130Z 01004KT 330V060 9999 -SHRA FEW010 BKN015 BKN025 17/15 Q1020


Monday
. High: 75° F.
Tuesday
. High: 80° F.
Wednesday
. High: 73° F.
Thursday
. High: 77° F.
Friday
. High: 66° F.
Saturday
. High: 77° F.
Sunday
. High: 80° F.
Monday
. High: 82° F.

Units: English | Metric

Find the Weather for any City, State or Zipcode, or Country:

U.S. State List | Severe Weather | Tropical Storms | Ski Conditions
United States | Canada | Central America | South America | Asia | Europe | Australia | Africa | Islands

Weather Underground

© Copyright 2017
The Weather Company, LLC